createdAt,value
2023-05-05T00:00:19.370Z,1020.00
2023-05-05T00:01:19.428Z,1019.00
2023-05-05T00:02:19.545Z,1020.00
2023-05-05T00:03:19.568Z,1019.00
2023-05-05T00:04:19.627Z,1015.00
2023-05-05T00:05:19.618Z,1017.00
2023-05-05T00:06:19.685Z,1017.00
2023-05-05T00:07:19.728Z,1017.00
2023-05-05T00:08:19.781Z,1019.00
2023-05-05T00:09:19.841Z,1017.00
2023-05-05T00:10:20.766Z,1016.00
2023-05-05T00:11:19.952Z,1016.00
2023-05-05T00:12:20.011Z,1016.00
2023-05-05T00:13:20.056Z,1015.00
2023-05-05T00:14:20.104Z,1014.00
2023-05-05T00:15:20.159Z,1015.00
2023-05-05T00:16:20.396Z,1015.00
2023-05-05T00:17:20.293Z,1015.00
2023-05-05T00:18:20.324Z,1018.00
2023-05-05T00:19:20.384Z,1016.00
2023-05-05T00:20:20.454Z,1019.00
2023-05-05T00:21:20.498Z,1018.00
2023-05-05T00:22:20.564Z,1019.00
2023-05-05T00:23:20.641Z,1023.00
2023-05-05T00:24:20.684Z,1021.00
2023-05-05T00:25:20.745Z,1022.00
2023-05-05T00:26:20.812Z,1022.00
2023-05-05T00:27:20.874Z,1021.00
2023-05-05T00:28:21.002Z,1019.00
2023-05-05T00:29:20.996Z,1017.00
2023-05-05T00:30:21.054Z,1016.00
2023-05-05T00:31:21.154Z,1017.00
2023-05-05T00:32:21.208Z,1017.00
2023-05-05T00:33:21.222Z,1016.00
2023-05-05T00:34:21.271Z,1013.00
2023-05-05T00:35:21.322Z,1014.00
2023-05-05T00:36:21.401Z,1013.00
2023-05-05T00:37:21.423Z,1011.00
2023-05-05T00:38:21.473Z,1008.00
2023-05-05T00:39:21.567Z,1009.00
2023-05-05T00:40:21.571Z,1012.00
2023-05-05T00:41:21.626Z,1013.00
2023-05-05T00:42:21.672Z,1010.00
2023-05-05T00:43:21.752Z,1013.00
2023-05-05T00:44:21.763Z,1014.00
2023-05-05T00:45:21.816Z,1015.00
2023-05-05T00:46:21.903Z,1012.00
2023-05-05T00:47:21.911Z,1012.00
2023-05-05T00:48:21.978Z,1011.00
2023-05-05T00:49:22.114Z,1011.00
2023-05-05T00:50:22.093Z,1011.00
2023-05-05T00:51:22.166Z,1009.00
2023-05-05T00:52:22.213Z,1008.00
2023-05-05T00:53:22.270Z,1008.00
2023-05-05T00:54:22.346Z,1008.00
2023-05-05T00:55:22.387Z,1008.00
2023-05-05T00:56:22.465Z,1007.00
2023-05-05T00:57:22.517Z,1009.00
2023-05-05T00:58:22.567Z,1010.00
2023-05-05T00:59:22.633Z,1011.00
2023-05-05T01:00:22.697Z,1009.00
2023-05-05T01:01:22.747Z,1007.00
2023-05-05T01:02:22.820Z,1005.00
2023-05-05T01:03:22.920Z,1006.00
2023-05-05T01:04:22.899Z,1005.00
2023-05-05T01:05:22.951Z,1002.00
2023-05-05T01:06:22.999Z,1001.00
2023-05-05T01:07:23.044Z,1000.00
2023-05-05T01:08:23.091Z,1004.00
2023-05-05T01:09:23.152Z,1006.00
2023-05-05T01:10:23.436Z,1004.00
2023-05-05T01:11:23.269Z,1002.00
2023-05-05T01:12:23.329Z,1000.00
2023-05-05T01:13:23.406Z,999.00
2023-05-05T01:14:23.449Z,1000.00
2023-05-05T01:15:23.520Z,1004.00
2023-05-05T01:16:23.637Z,1003.00
2023-05-05T01:17:23.669Z,999.00
2023-05-05T01:18:23.684Z,1002.00
2023-05-05T01:19:23.760Z,1002.00
2023-05-05T01:20:23.815Z,1000.00
2023-05-05T01:21:23.875Z,999.00
2023-05-05T01:22:23.927Z,998.00
2023-05-05T01:23:23.981Z,997.00
2023-05-05T01:24:24.036Z,995.00
2023-05-05T01:25:24.106Z,1000.00
2023-05-05T01:26:24.147Z,1001.00
2023-05-05T01:27:24.197Z,1000.00
2023-05-05T01:28:24.249Z,1000.00
2023-05-05T01:29:24.312Z,998.00
2023-05-05T01:30:24.361Z,995.00
2023-05-05T01:31:24.431Z,994.00
2023-05-05T01:32:24.534Z,995.00
2023-05-05T01:33:24.537Z,996.00
2023-05-05T01:34:24.607Z,994.00
2023-05-05T01:35:24.641Z,997.00
2023-05-05T01:36:24.683Z,996.00
2023-05-05T01:37:24.735Z,994.00
2023-05-05T01:38:24.786Z,996.00
2023-05-05T01:39:24.831Z,994.00
2023-05-05T01:40:24.876Z,993.00
2023-05-05T01:41:24.932Z,995.00
2023-05-05T01:42:24.991Z,993.00
2023-05-05T01:43:25.020Z,990.00
2023-05-05T01:44:25.063Z,988.00
2023-05-05T01:45:25.126Z,987.00
2023-05-05T01:46:25.166Z,987.00
2023-05-05T01:47:25.242Z,987.00
2023-05-05T01:48:25.255Z,987.00
2023-05-05T01:49:25.320Z,987.00
2023-05-05T01:50:25.368Z,985.00
2023-05-05T01:51:25.418Z,986.00
2023-05-05T01:52:25.458Z,987.00
2023-05-05T01:53:25.513Z,989.00
2023-05-05T01:54:25.564Z,991.00
2023-05-05T01:55:25.617Z,991.00
2023-05-05T01:56:25.672Z,989.00
2023-05-05T01:57:25.715Z,987.00
2023-05-05T01:58:25.768Z,987.00
2023-05-05T01:59:25.815Z,988.00
2023-05-05T02:00:25.873Z,989.00
2023-05-05T02:01:25.949Z,991.00
2023-05-05T02:02:26.033Z,995.00
2023-05-05T02:03:26.058Z,996.00
2023-05-05T02:04:26.077Z,996.00
2023-05-05T02:05:26.134Z,995.00
2023-05-05T02:06:26.213Z,992.00
2023-05-05T02:07:26.267Z,993.00
2023-05-05T02:08:26.339Z,993.00
2023-05-05T02:09:26.362Z,995.00
2023-05-05T02:10:26.426Z,994.00
2023-05-05T02:11:26.477Z,993.00
2023-05-05T02:12:26.527Z,992.00
2023-05-05T02:13:26.631Z,989.00
2023-05-05T02:14:26.626Z,989.00
2023-05-05T02:15:26.679Z,990.00
2023-05-05T02:16:26.732Z,990.00
2023-05-05T02:17:26.807Z,992.00
2023-05-05T02:18:26.840Z,991.00
2023-05-05T02:19:26.887Z,989.00
2023-05-05T02:20:26.952Z,988.00
2023-05-05T02:21:27.004Z,987.00
2023-05-05T02:22:27.051Z,988.00
2023-05-05T02:23:27.103Z,990.00
2023-05-05T02:24:27.152Z,991.00
2023-05-05T02:25:27.203Z,993.00
2023-05-05T02:26:27.256Z,991.00
2023-05-05T02:27:27.304Z,992.00
2023-05-05T02:28:27.366Z,991.00
2023-05-05T02:29:27.412Z,992.00
2023-05-05T02:30:27.444Z,993.00
2023-05-05T02:31:27.601Z,995.00
2023-05-05T02:32:27.591Z,996.00
2023-05-05T02:33:27.595Z,992.00
2023-05-05T02:34:27.640Z,992.00
2023-05-05T02:35:27.689Z,990.00
2023-05-05T02:36:27.798Z,987.00
2023-05-05T02:37:27.801Z,990.00
2023-05-05T02:38:27.853Z,989.00
2023-05-05T02:39:27.909Z,989.00
2023-05-05T02:40:27.958Z,990.00
2023-05-05T02:41:28.007Z,985.00
2023-05-05T02:42:28.072Z,985.00
2023-05-05T02:43:28.125Z,982.00
2023-05-05T02:44:28.187Z,984.00
2023-05-05T02:45:28.256Z,986.00
2023-05-05T02:46:28.362Z,987.00
2023-05-05T02:47:28.365Z,988.00
2023-05-05T02:48:28.406Z,985.00
2023-05-05T02:49:28.445Z,982.00
2023-05-05T02:50:28.473Z,983.00
2023-05-05T02:51:28.518Z,985.00
2023-05-05T02:52:28.571Z,986.00
2023-05-05T02:53:28.625Z,983.00
2023-05-05T02:54:28.683Z,982.00
2023-05-05T02:55:28.745Z,979.00
2023-05-05T02:56:28.777Z,975.00
2023-05-05T02:57:28.827Z,975.00
2023-05-05T02:58:28.887Z,975.00
2023-05-05T02:59:28.947Z,975.00
2023-05-05T03:00:29.004Z,976.00
2023-05-05T03:01:29.116Z,977.00
2023-05-05T03:02:29.246Z,977.00
2023-05-05T03:03:29.272Z,975.00
2023-05-05T03:04:29.242Z,973.00
2023-05-05T03:05:29.256Z,972.00
2023-05-05T03:06:29.323Z,971.00
2023-05-05T03:07:29.374Z,970.00
2023-05-05T03:08:29.421Z,973.00
2023-05-05T03:09:29.490Z,975.00
2023-05-05T03:10:29.546Z,976.00
2023-05-05T03:11:29.597Z,977.00
2023-05-05T03:12:29.677Z,975.00
2023-05-05T03:13:29.686Z,973.00
2023-05-05T03:14:32.772Z,975.00
2023-05-05T03:15:29.745Z,975.00
2023-05-05T03:16:29.793Z,976.00
2023-05-05T03:17:29.762Z,978.00
2023-05-05T03:18:29.824Z,976.00
2023-05-05T03:19:29.780Z,974.00
2023-05-05T03:20:29.780Z,974.00
2023-05-05T03:21:29.792Z,972.00
2023-05-05T03:22:29.784Z,971.00
2023-05-05T03:23:29.796Z,976.00
2023-05-05T03:24:29.813Z,974.00
2023-05-05T03:25:29.812Z,974.00
2023-05-05T03:26:29.808Z,974.00
2023-05-05T03:27:29.829Z,974.00
2023-05-05T03:28:29.830Z,976.00
2023-05-05T03:29:29.822Z,972.00
2023-05-05T03:30:29.825Z,973.00
2023-05-05T03:31:29.867Z,972.00
2023-05-05T03:32:29.888Z,971.00
2023-05-05T03:33:29.851Z,970.00
2023-05-05T03:34:29.846Z,969.00
2023-05-05T03:35:29.871Z,964.00
2023-05-05T03:36:29.865Z,965.00
2023-05-05T03:37:29.870Z,965.00
2023-05-05T03:38:29.884Z,967.00
2023-05-05T03:39:29.882Z,967.00
2023-05-05T03:40:42.964Z,966.00
2023-05-05T03:41:30.907Z,968.00
2023-05-05T03:42:29.902Z,970.00
2023-05-05T03:43:29.911Z,970.00
2023-05-05T03:44:29.913Z,971.00
2023-05-05T03:45:29.985Z,972.00
2023-05-05T03:46:29.944Z,973.00
2023-05-05T03:47:29.970Z,972.00
2023-05-05T03:48:29.939Z,972.00
2023-05-05T03:49:29.948Z,974.00
2023-05-05T03:50:29.948Z,975.00
2023-05-05T03:51:29.957Z,971.00
2023-05-05T03:52:29.953Z,976.00
2023-05-05T03:53:29.993Z,974.00
2023-05-05T03:54:30.025Z,972.00
2023-05-05T03:55:30.077Z,970.00
2023-05-05T03:56:30.110Z,967.00
2023-05-05T03:57:30.159Z,962.00
2023-05-05T03:58:30.209Z,962.00
2023-05-05T03:59:30.263Z,961.00
2023-05-05T04:00:30.841Z,963.00
2023-05-05T04:01:30.353Z,963.00
2023-05-05T04:02:30.474Z,965.00
2023-05-05T04:03:30.745Z,967.00
2023-05-05T04:04:30.552Z,966.00
2023-05-05T04:05:30.535Z,965.00
2023-05-05T04:06:30.583Z,966.00
2023-05-05T04:07:30.624Z,968.00
2023-05-05T04:08:30.677Z,970.00
2023-05-05T04:09:30.723Z,968.00
2023-05-05T04:10:30.780Z,968.00
2023-05-05T04:11:30.823Z,965.00
2023-05-05T04:12:30.918Z,966.00
2023-05-05T04:13:30.926Z,967.00
2023-05-05T04:14:30.975Z,965.00
2023-05-05T04:15:31.015Z,965.00
2023-05-05T04:16:31.188Z,966.00
2023-05-05T04:17:31.112Z,966.00
2023-05-05T04:18:31.177Z,964.00
2023-05-05T04:19:31.223Z,964.00
2023-05-05T04:20:31.275Z,961.00
2023-05-05T04:21:31.324Z,962.00
2023-05-05T04:22:31.366Z,961.00
2023-05-05T04:23:31.425Z,962.00
2023-05-05T04:24:31.473Z,963.00
2023-05-05T04:25:31.549Z,960.00
2023-05-05T04:26:31.576Z,958.00
2023-05-05T04:27:31.610Z,954.00
2023-05-05T04:28:31.723Z,958.00
2023-05-05T04:29:31.710Z,958.00
2023-05-05T04:30:31.758Z,957.00
2023-05-05T04:31:31.834Z,957.00
2023-05-05T04:32:31.899Z,958.00
2023-05-05T04:33:31.898Z,958.00
2023-05-05T04:34:31.956Z,957.00
2023-05-05T04:35:32.012Z,957.00
2023-05-05T04:36:32.062Z,953.00
2023-05-05T04:37:32.118Z,956.00
2023-05-05T04:38:32.192Z,955.00
2023-05-05T04:39:32.221Z,957.00
2023-05-05T04:40:32.291Z,957.00
2023-05-05T04:41:32.325Z,958.00
2023-05-05T04:42:32.377Z,960.00
2023-05-05T04:43:32.432Z,959.00
2023-05-05T04:44:32.475Z,957.00
2023-05-05T04:45:32.529Z,956.00
2023-05-05T04:46:32.586Z,957.00
2023-05-05T04:47:32.637Z,958.00
2023-05-05T04:48:32.767Z,958.00
2023-05-05T04:49:32.801Z,958.00
2023-05-05T04:50:32.825Z,957.00
2023-05-05T04:51:32.867Z,956.00
2023-05-05T04:52:32.877Z,958.00
2023-05-05T04:53:32.919Z,959.00
2023-05-05T04:54:32.976Z,957.00
2023-05-05T04:55:33.037Z,957.00
2023-05-05T04:56:33.102Z,957.00
2023-05-05T04:57:33.153Z,955.00
2023-05-05T04:58:33.201Z,953.00
2023-05-05T04:59:33.253Z,955.00
2023-05-05T05:00:33.310Z,956.00
2023-05-05T05:01:33.462Z,957.00
2023-05-05T05:02:33.492Z,957.00
2023-05-05T05:03:33.595Z,957.00
2023-05-05T05:04:33.550Z,957.00
2023-05-05T05:05:33.605Z,955.00
2023-05-05T05:06:33.617Z,956.00
2023-05-05T05:07:33.676Z,955.00
2023-05-05T05:08:33.725Z,956.00
2023-05-05T05:09:33.768Z,955.00
2023-05-05T05:10:33.824Z,955.00
2023-05-05T05:11:33.884Z,954.00
2023-05-05T05:12:33.943Z,954.00
2023-05-05T05:13:33.954Z,955.00
2023-05-05T05:14:34.876Z,956.00
2023-05-05T05:15:34.045Z,954.00
2023-05-05T05:16:34.128Z,952.00
2023-05-05T05:17:34.169Z,953.00
2023-05-05T05:18:34.224Z,954.00
2023-05-05T05:19:34.263Z,839.00
2023-05-05T05:20:34.347Z,837.00
2023-05-05T05:21:34.366Z,868.00
2023-05-05T05:22:34.409Z,872.00
2023-05-05T05:23:34.456Z,874.00
2023-05-05T05:24:34.524Z,867.00
2023-05-05T05:25:34.584Z,858.00
2023-05-05T05:26:34.657Z,850.00
2023-05-05T05:27:34.731Z,842.00
2023-05-05T05:28:34.798Z,838.00
2023-05-05T05:29:34.880Z,841.00
2023-05-05T05:30:34.972Z,821.00
2023-05-05T05:31:35.843Z,805.00
2023-05-05T05:32:35.153Z,873.00
2023-05-05T05:33:35.202Z,871.00
2023-05-05T05:34:35.287Z,895.00
2023-05-05T05:35:35.362Z,1006.00
2023-05-05T05:36:35.428Z,1030.00
2023-05-05T05:37:35.491Z,1041.00
2023-05-05T05:38:35.571Z,1058.00
2023-05-05T05:39:35.615Z,1084.00
2023-05-05T05:40:35.663Z,1107.00
2023-05-05T05:41:35.720Z,1122.00
2023-05-05T05:42:35.862Z,1112.00
2023-05-05T05:43:35.831Z,1123.00
2023-05-05T05:44:35.861Z,1143.00
2023-05-05T05:45:35.909Z,1163.00
2023-05-05T05:46:36.040Z,1179.00
2023-05-05T05:47:36.024Z,1188.00
2023-05-05T05:48:36.034Z,1199.00
2023-05-05T05:49:36.081Z,1209.00
2023-05-05T05:50:36.115Z,1198.00
2023-05-05T05:51:36.164Z,1203.00
2023-05-05T05:52:36.193Z,1225.00
2023-05-05T05:53:36.239Z,1242.00
2023-05-05T05:54:36.270Z,1247.00
2023-05-05T05:55:36.311Z,1246.00
2023-05-05T05:56:36.347Z,1090.00
2023-05-05T05:57:36.393Z,995.00
2023-05-05T05:58:36.457Z,871.00
2023-05-05T05:59:36.523Z,858.00
2023-05-05T06:00:36.576Z,821.00
2023-05-05T06:01:36.647Z,762.00
2023-05-05T06:02:36.790Z,846.00
2023-05-05T06:03:36.791Z,825.00
2023-05-05T06:04:36.879Z,812.00
2023-05-05T06:05:36.900Z,801.00
2023-05-05T06:06:36.943Z,812.00
2023-05-05T06:07:36.992Z,827.00
2023-05-05T06:08:37.040Z,833.00
2023-05-05T06:09:37.091Z,845.00
2023-05-05T06:10:37.143Z,864.00
2023-05-05T06:11:37.184Z,885.00
2023-05-05T06:12:37.261Z,892.00
2023-05-05T06:13:37.234Z,903.00
2023-05-05T06:14:37.274Z,917.00
2023-05-05T06:15:37.318Z,941.00
2023-05-05T06:16:37.308Z,946.00
2023-05-05T06:17:37.319Z,947.00
2023-05-05T06:18:37.338Z,952.00
2023-05-05T06:19:37.342Z,952.00
2023-05-05T06:20:37.358Z,958.00
2023-05-05T06:21:37.359Z,939.00
2023-05-05T06:22:37.390Z,807.00
2023-05-05T06:23:37.405Z,827.00
2023-05-05T06:24:37.429Z,820.00
2023-05-05T06:25:37.450Z,821.00
2023-05-05T06:26:37.457Z,780.00
2023-05-05T06:27:37.482Z,824.00
2023-05-05T06:28:37.526Z,858.00
2023-05-05T06:29:37.530Z,906.00
2023-05-05T06:30:37.544Z,902.00
2023-05-05T06:31:37.630Z,915.00
2023-05-05T06:32:37.578Z,900.00
2023-05-05T06:33:37.572Z,899.00
2023-05-05T06:34:37.593Z,911.00
2023-05-05T06:35:37.597Z,922.00
2023-05-05T06:36:37.675Z,948.00
2023-05-05T06:37:37.615Z,955.00
2023-05-05T06:38:37.628Z,953.00
2023-05-05T06:39:37.646Z,970.00
2023-05-05T06:40:37.660Z,984.00
2023-05-05T06:41:37.716Z,1001.00
2023-05-05T06:42:37.649Z,1014.00
2023-05-05T06:43:37.658Z,1023.00
2023-05-05T06:44:37.674Z,1030.00
2023-05-05T06:45:37.712Z,1039.00
2023-05-05T06:46:37.838Z,1054.00
2023-05-05T06:47:37.819Z,1064.00
2023-05-05T06:48:37.822Z,1072.00
2023-05-05T06:49:37.863Z,1089.00
2023-05-05T06:50:37.918Z,1103.00
2023-05-05T06:51:37.961Z,1116.00
2023-05-05T06:52:37.973Z,1132.00
2023-05-05T06:53:38.032Z,1147.00
2023-05-05T06:54:38.143Z,1157.00
2023-05-05T06:55:38.911Z,1166.00
2023-05-05T06:56:38.103Z,1179.00
2023-05-05T06:57:38.102Z,1196.00
2023-05-05T06:58:38.080Z,1215.00
2023-05-05T06:59:38.075Z,1224.00
2023-05-05T07:00:38.085Z,1236.00
2023-05-05T07:01:38.066Z,1249.00
2023-05-05T07:02:38.091Z,1254.00
2023-05-05T07:03:38.074Z,1264.00
2023-05-05T07:04:38.079Z,1275.00
2023-05-05T07:05:38.051Z,1289.00
2023-05-05T07:06:38.047Z,1301.00
2023-05-05T07:07:38.043Z,1313.00
2023-05-05T07:08:38.023Z,1324.00
2023-05-05T07:09:38.015Z,1338.00
2023-05-05T07:10:38.145Z,1347.00
2023-05-05T07:11:38.109Z,1351.00
2023-05-05T07:12:38.160Z,1362.00
2023-05-05T07:13:38.159Z,1374.00
2023-05-05T07:14:38.134Z,1385.00
2023-05-05T07:15:38.136Z,1396.00
2023-05-05T07:16:38.165Z,1424.00
2023-05-05T07:17:38.989Z,1448.00
2023-05-05T07:18:38.126Z,1451.00
2023-05-05T07:19:38.144Z,1481.00
2023-05-05T07:20:38.105Z,1486.00
2023-05-05T07:21:38.100Z,1485.00
2023-05-05T07:22:38.082Z,1389.00
2023-05-05T07:23:38.082Z,1409.00
2023-05-05T07:24:38.082Z,1453.00
2023-05-05T07:25:38.129Z,1467.00
2023-05-05T07:26:38.312Z,1466.00
2023-05-05T07:27:38.211Z,1478.00
2023-05-05T07:28:38.278Z,1493.00
2023-05-05T07:29:38.352Z,1506.00
2023-05-05T07:30:38.376Z,1514.00
2023-05-05T07:31:38.464Z,1513.00
2023-05-05T07:32:38.505Z,1517.00
2023-05-05T07:33:38.495Z,1565.00
2023-05-05T07:34:39.474Z,1559.00
2023-05-05T07:35:38.473Z,1557.00
2023-05-05T07:36:38.514Z,1577.00
2023-05-05T07:37:38.468Z,1602.00
2023-05-05T07:38:38.455Z,1612.00
2023-05-05T07:39:38.430Z,1622.00
2023-05-05T07:40:38.413Z,1619.00
2023-05-05T07:41:38.412Z,1626.00
2023-05-05T07:42:38.522Z,1643.00
2023-05-05T07:43:39.384Z,1646.00
2023-05-05T07:44:38.366Z,1644.00
2023-05-05T07:45:38.361Z,1657.00
2023-05-05T07:46:38.391Z,1675.00
2023-05-05T07:47:38.419Z,1689.00
2023-05-05T07:48:38.361Z,1700.00
2023-05-05T07:49:38.346Z,1711.00
2023-05-05T07:50:38.336Z,1725.00
2023-05-05T07:51:38.338Z,1714.00
2023-05-05T07:52:48.256Z,1718.00
2023-05-05T07:53:38.328Z,1739.00
2023-05-05T07:54:38.315Z,1702.00
2023-05-05T07:55:38.361Z,1738.00
2023-05-05T07:56:38.291Z,1762.00
2023-05-05T07:57:38.281Z,1767.00
2023-05-05T07:58:38.325Z,1767.00
2023-05-05T07:59:38.270Z,1693.00
2023-05-05T08:00:38.242Z,1742.00
2023-05-05T08:01:38.241Z,1774.00
2023-05-05T08:02:38.336Z,1778.00
2023-05-05T08:03:38.575Z,1781.00
2023-05-05T08:04:38.400Z,1780.00
2023-05-05T08:05:38.941Z,1875.00
2023-05-05T08:06:38.444Z,1902.00
2023-05-05T08:07:38.531Z,1907.00
2023-05-05T08:08:38.566Z,1907.00
2023-05-05T08:09:38.647Z,1859.00
2023-05-05T08:10:38.681Z,1881.00
2023-05-05T08:11:39.461Z,1884.00
2023-05-05T08:12:38.821Z,1728.00
2023-05-05T08:13:38.873Z,1722.00
2023-05-05T08:14:39.005Z,1715.00
2023-05-05T08:15:39.045Z,1857.00
2023-05-05T08:16:39.034Z,1585.00
2023-05-05T08:17:39.167Z,1368.00
2023-05-05T08:18:39.158Z,1553.00
2023-05-05T08:19:39.224Z,1387.00
2023-05-05T08:20:39.285Z,1397.00
2023-05-05T08:21:39.341Z,1495.00
2023-05-05T08:22:39.405Z,1530.00
2023-05-05T08:23:39.457Z,1423.00
2023-05-05T08:24:39.534Z,1426.00
2023-05-05T08:25:39.569Z,1442.00
2023-05-05T08:26:39.612Z,1554.00
2023-05-05T08:27:39.654Z,1549.00
2023-05-05T08:28:39.723Z,1559.00
2023-05-05T08:29:39.758Z,1604.00
2023-05-05T08:30:39.910Z,1698.00
2023-05-05T08:31:40.016Z,1673.00
2023-05-05T08:32:39.945Z,1657.00
2023-05-05T08:33:39.958Z,1759.00
2023-05-05T08:34:40.006Z,1781.00
2023-05-05T08:35:40.052Z,1659.00
2023-05-05T08:36:40.088Z,1724.00
2023-05-05T08:37:40.153Z,1671.00
2023-05-05T08:38:40.202Z,1734.00
2023-05-05T08:39:40.226Z,1802.00
2023-05-05T08:40:40.273Z,1608.00
2023-05-05T08:41:40.300Z,1806.00
2023-05-05T08:42:40.393Z,1624.00
2023-05-05T08:43:40.370Z,1661.00
2023-05-05T08:44:40.420Z,1664.00
2023-05-05T08:45:41.371Z,1884.00
2023-05-05T08:46:41.538Z,1952.00
2023-05-05T08:47:40.474Z,1836.00
2023-05-05T08:48:40.406Z,1820.00
2023-05-05T08:49:40.381Z,1879.00
2023-05-05T08:50:40.370Z,1834.00
2023-05-05T08:51:40.366Z,1933.00
2023-05-05T08:52:40.432Z,1931.00
2023-05-05T08:53:40.332Z,1942.00
2023-05-05T08:54:40.319Z,2002.00
2023-05-05T08:55:40.293Z,2091.00
2023-05-05T08:56:40.278Z,2135.00
2023-05-05T08:57:40.942Z,2047.00
2023-05-05T08:58:40.254Z,2057.00
2023-05-05T08:59:40.229Z,1960.00
2023-05-05T09:00:40.256Z,1932.00
2023-05-05T09:01:40.190Z,1935.00
2023-05-05T09:02:40.292Z,2081.00
2023-05-05T09:03:40.142Z,1965.00
2023-05-05T09:04:40.132Z,2136.00
2023-05-05T09:05:40.101Z,2075.00
2023-05-05T09:06:40.083Z,2067.00
2023-05-05T09:07:40.062Z,2147.00
2023-05-05T09:08:40.060Z,2180.00
2023-05-05T09:09:40.049Z,2160.00
2023-05-05T09:10:40.033Z,2114.00
2023-05-05T09:11:39.992Z,2233.00
2023-05-05T09:12:40.011Z,2358.00
2023-05-05T09:13:40.018Z,2286.00
2023-05-05T09:14:40.015Z,2264.00
2023-05-05T09:15:40.045Z,2143.00
2023-05-05T09:16:40.233Z,2323.00
2023-05-05T09:17:40.105Z,2276.00
2023-05-05T09:18:40.164Z,2289.00
2023-05-05T09:19:40.469Z,2268.00
2023-05-05T09:20:41.102Z,2265.00
2023-05-05T09:21:40.083Z,2259.00
2023-05-05T09:22:40.059Z,2248.00
2023-05-05T09:23:40.175Z,2247.00
2023-05-05T09:24:40.018Z,2249.00
2023-05-05T09:25:40.004Z,2261.00
2023-05-05T09:26:40.049Z,2277.00
2023-05-05T09:27:40.100Z,2289.00
2023-05-05T09:28:40.898Z,2296.00
2023-05-05T09:29:40.042Z,2297.00
2023-05-05T09:30:40.051Z,2294.00
2023-05-05T09:31:40.016Z,2295.00
2023-05-05T09:32:40.123Z,2307.00
2023-05-05T09:33:39.997Z,2316.00
2023-05-05T09:34:40.062Z,2323.00
2023-05-05T09:35:39.991Z,2322.00
2023-05-05T09:36:39.984Z,2321.00
2023-05-05T09:37:39.980Z,2319.00
2023-05-05T09:38:39.996Z,2318.00
2023-05-05T09:39:40.033Z,2315.00
2023-05-05T09:40:40.076Z,2310.00
2023-05-05T09:41:40.139Z,2308.00
2023-05-05T09:42:40.192Z,2310.00
2023-05-05T09:43:40.236Z,2310.00
2023-05-05T09:44:40.280Z,2309.00
2023-05-05T09:45:40.364Z,2305.00
2023-05-05T09:46:40.399Z,2307.00
2023-05-05T09:47:40.497Z,2306.00
2023-05-05T09:48:40.505Z,2305.00
2023-05-05T09:49:40.566Z,2300.00
2023-05-05T09:50:41.397Z,2301.00
2023-05-05T09:51:40.676Z,2299.00
2023-05-05T09:52:40.764Z,2298.00
2023-05-05T09:53:40.831Z,2298.00
2023-05-05T09:54:40.869Z,2292.00
2023-05-05T09:55:40.944Z,2290.00
2023-05-05T09:56:41.037Z,2287.00
2023-05-05T09:57:41.078Z,2285.00
2023-05-05T09:58:41.131Z,2285.00
2023-05-05T09:59:42.410Z,2282.00
2023-05-05T10:00:41.212Z,2284.00
2023-05-05T10:01:41.347Z,2284.00
2023-05-05T10:02:41.311Z,2283.00
2023-05-05T10:03:41.331Z,2281.00
2023-05-05T10:04:41.387Z,2280.00
2023-05-05T10:05:41.408Z,2282.00
2023-05-05T10:06:41.513Z,2279.00
2023-05-05T10:07:41.529Z,2276.00
2023-05-05T10:08:41.553Z,2274.00
2023-05-05T10:09:41.637Z,2276.00
2023-05-05T10:10:41.704Z,2276.00
2023-05-05T10:11:41.758Z,2275.00
2023-05-05T10:12:42.529Z,2272.00
2023-05-05T10:13:41.988Z,2273.00
2023-05-05T10:14:41.944Z,2267.00
2023-05-05T10:15:42.106Z,2256.00
2023-05-05T10:16:42.120Z,1976.00
2023-05-05T10:17:47.871Z,1622.00
2023-05-05T10:18:43.129Z,1628.00
2023-05-05T10:19:42.096Z,1203.00
2023-05-05T10:20:42.099Z,884.00
2023-05-05T10:21:43.402Z,1198.00
2023-05-05T10:22:42.203Z,1220.00
2023-05-05T10:23:42.081Z,1066.00
2023-05-05T10:24:42.074Z,1068.00
2023-05-05T10:25:42.038Z,1081.00
2023-05-05T10:26:42.029Z,990.00
2023-05-05T10:27:42.019Z,1092.00
2023-05-05T10:28:42.003Z,895.00
2023-05-05T10:29:41.984Z,1015.00
2023-05-05T10:30:41.970Z,1021.00
2023-05-05T10:31:42.048Z,996.00
2023-05-05T10:33:42.077Z,968.00
2023-05-05T10:34:42.035Z,949.00
2023-05-05T10:35:41.994Z,909.00
2023-05-05T10:36:41.967Z,832.00
2023-05-05T10:37:41.963Z,799.00
2023-05-05T10:38:42.012Z,803.00
2023-05-05T10:39:41.982Z,815.00
2023-05-05T10:40:41.919Z,826.00
2023-05-05T10:41:41.915Z,833.00
2023-05-05T10:42:41.910Z,843.00
2023-05-05T10:43:41.896Z,849.00
2023-05-05T10:44:41.873Z,856.00
2023-05-05T10:45:41.969Z,743.00
2023-05-05T10:46:41.921Z,815.00
2023-05-05T10:47:41.891Z,812.00
2023-05-05T10:48:41.877Z,805.00
2023-05-05T10:49:41.825Z,805.00
2023-05-05T10:50:41.814Z,825.00
2023-05-05T10:51:41.804Z,854.00
2023-05-05T10:52:41.789Z,852.00
2023-05-05T10:53:41.776Z,758.00
2023-05-05T10:54:41.865Z,770.00
2023-05-05T10:55:41.743Z,778.00
2023-05-05T10:56:41.718Z,760.00
2023-05-05T10:57:41.748Z,748.00
2023-05-05T10:58:58.388Z,754.00
2023-05-05T10:59:42.702Z,759.00
2023-05-05T11:00:41.685Z,793.00
2023-05-05T11:01:41.651Z,801.00
2023-05-05T11:02:41.739Z,804.00
2023-05-05T11:03:41.668Z,799.00
2023-05-05T11:04:41.606Z,723.00
2023-05-05T11:05:41.595Z,696.00
2023-05-05T11:06:41.584Z,692.00
2023-05-05T11:07:41.562Z,706.00
2023-05-05T11:08:41.550Z,715.00
2023-05-05T11:09:41.597Z,715.00
2023-05-05T11:10:41.652Z,719.00
2023-05-05T11:11:41.507Z,723.00
2023-05-05T11:12:41.500Z,729.00
2023-05-05T11:13:41.483Z,734.00
2023-05-05T11:14:41.486Z,739.00
2023-05-05T11:15:41.487Z,744.00
2023-05-05T11:16:41.485Z,748.00
2023-05-05T11:17:41.492Z,748.00
2023-05-05T11:18:41.440Z,752.00
2023-05-05T11:19:41.421Z,756.00
2023-05-05T11:20:41.451Z,756.00
2023-05-05T11:21:41.481Z,756.00
2023-05-05T11:22:41.515Z,757.00
2023-05-05T11:23:41.556Z,755.00
2023-05-05T11:24:41.590Z,755.00
2023-05-05T11:25:41.627Z,756.00
2023-05-05T11:26:41.718Z,754.00
2023-05-05T11:27:41.693Z,754.00
2023-05-05T11:28:41.725Z,753.00
2023-05-05T11:29:41.765Z,754.00
2023-05-05T11:30:41.842Z,753.00
2023-05-05T11:31:41.890Z,753.00
2023-05-05T11:32:41.928Z,753.00
2023-05-05T11:33:41.931Z,753.00
2023-05-05T11:34:41.984Z,755.00
2023-05-05T11:35:42.018Z,754.00
2023-05-05T11:36:42.082Z,755.00
2023-05-05T11:37:42.117Z,751.00
2023-05-05T11:38:42.166Z,751.00
2023-05-05T11:39:42.226Z,750.00
2023-05-05T11:40:42.247Z,750.00
2023-05-05T11:41:42.309Z,750.00
2023-05-05T11:42:42.348Z,748.00
2023-05-05T11:43:42.389Z,749.00
2023-05-05T11:44:42.439Z,750.00
2023-05-05T11:45:42.475Z,748.00
2023-05-05T11:46:42.539Z,748.00
2023-05-05T11:47:42.737Z,746.00
2023-05-05T11:48:42.629Z,744.00
2023-05-05T11:49:42.714Z,747.00
2023-05-05T11:50:42.716Z,749.00
2023-05-05T11:51:42.770Z,750.00
2023-05-05T11:52:42.819Z,748.00
2023-05-05T11:53:42.887Z,748.00
2023-05-05T11:54:42.937Z,750.00
2023-05-05T11:55:42.974Z,749.00
2023-05-05T11:56:43.027Z,750.00
2023-05-05T11:57:43.076Z,750.00
2023-05-05T11:58:43.230Z,751.00
2023-05-05T11:59:43.161Z,752.00
2023-05-05T12:00:43.219Z,749.00
2023-05-05T12:01:43.266Z,753.00
2023-05-05T12:02:43.390Z,751.00
2023-05-05T12:03:43.553Z,753.00
2023-05-05T12:04:43.443Z,754.00
2023-05-05T12:05:43.478Z,754.00
2023-05-05T12:06:43.518Z,751.00
2023-05-05T12:07:43.573Z,752.00
2023-05-05T12:08:43.627Z,753.00
2023-05-05T12:09:43.670Z,750.00
2023-05-05T12:10:43.715Z,747.00
2023-05-05T12:11:43.772Z,746.00
2023-05-05T12:12:43.858Z,746.00
2023-05-05T12:13:43.866Z,747.00
2023-05-05T12:14:43.997Z,749.00
2023-05-05T12:15:43.975Z,748.00
2023-05-05T12:16:44.124Z,749.00
2023-05-05T12:17:44.111Z,749.00
2023-05-05T12:18:44.109Z,747.00
2023-05-05T12:19:44.169Z,745.00